Terminal Aerodrome Forecast
Issued by NWS

Home | Current Version | Previous Version | Text Only | Print | Product List | Glossary On
Versions: 1 2 3 4 5 6 7 8 9 10 11 12 13 14 15 16 17 18 19
000
FTUS44 KCRP 040529
TAFALI
TAF
KALI 040529Z 0406/0506 15006KT P6SM FEW015 SCT250
      TEMPO 0409/0413 5SM BR BKN015
     FM041400 15014KT P6SM VCSH SCT030
      TEMPO 0414/0416 BKN030
     FM042100 14015G22KT P6SM SCT040 BKN250
     FM050100 14010KT P6SM FEW015=

USA.gov is the U.S. government's official web portal to all federal, state and local government web resources and services.